createdAt,value
2022-12-19T00:02:19.742Z,75.29
2022-12-19T00:04:51.908Z,75.30
2022-12-19T00:07:23.855Z,75.13
2022-12-19T00:09:55.769Z,75.13
2022-12-19T00:12:27.802Z,75.07
2022-12-19T00:14:59.734Z,75.22
2022-12-19T00:17:33.878Z,74.36
2022-12-19T00:20:09.712Z,74.56
2022-12-19T00:22:43.207Z,74.53
2022-12-19T00:25:15.345Z,74.81
2022-12-19T00:27:47.975Z,74.60
2022-12-19T00:30:19.947Z,74.71
2022-12-19T00:32:52.394Z,74.48
2022-12-19T00:35:25.001Z,74.26
2022-12-19T00:37:57.060Z,74.41
2022-12-19T00:40:29.120Z,74.59
2022-12-19T00:43:01.211Z,74.70
2022-12-19T00:45:33.285Z,75.21
2022-12-19T00:48:05.895Z,75.76
2022-12-19T00:50:38.492Z,76.97
2022-12-19T00:53:10.542Z,79.26
2022-12-19T00:55:42.576Z,79.97
2022-12-19T00:58:14.528Z,81.39
2022-12-19T01:00:46.529Z,82.97
2022-12-19T01:03:18.538Z,84.39
2022-12-19T01:05:52.500Z,86.50
2022-12-19T01:08:24.654Z,87.73
2022-12-19T01:10:58.221Z,88.01
2022-12-19T01:13:34.205Z,88.97
2022-12-19T01:16:11.164Z,90.23
2022-12-19T01:18:43.621Z,90.40
2022-12-19T01:21:15.617Z,91.02
2022-12-19T01:23:47.552Z,91.68
2022-12-19T01:26:19.562Z,92.24
2022-12-19T01:28:51.483Z,92.29
2022-12-19T01:31:23.817Z,93.32
2022-12-19T01:33:55.885Z,93.99
2022-12-19T01:36:28.240Z,93.96
2022-12-19T01:39:00.210Z,94.35
2022-12-19T01:41:32.162Z,94.19
2022-12-19T01:44:09.054Z,94.74
2022-12-19T01:46:46.641Z,95.14
2022-12-19T01:49:35.105Z,95.52
2022-12-19T01:52:09.097Z,95.51
2022-12-19T01:54:44.456Z,95.67
2022-12-19T01:57:19.843Z,95.40
2022-12-19T01:59:57.192Z,95.79
2022-12-19T02:02:38.856Z,96.12
2022-12-19T02:05:11.183Z,96.23
2022-12-19T02:07:44.426Z,96.15
2022-12-19T02:10:16.546Z,96.59
2022-12-19T02:12:48.543Z,96.64
2022-12-19T02:15:21.286Z,97.00
2022-12-19T02:18:02.163Z,96.94
2022-12-19T02:21:18.953Z,97.53
2022-12-19T02:24:41.582Z,97.30
2022-12-19T02:27:56.765Z,97.58
2022-12-19T02:30:50.605Z,97.79
2022-12-19T02:33:39.628Z,97.88
2022-12-19T02:36:48.910Z,98.04
2022-12-19T02:39:46.756Z,98.17
2022-12-19T02:42:29.189Z,98.18
2022-12-19T02:45:07.451Z,98.77
2022-12-19T02:47:40.541Z,99.05
2022-12-19T02:50:13.407Z,99.38
2022-12-19T02:52:47.803Z,99.90
2022-12-19T02:55:24.632Z,100.00
2022-12-19T02:58:51.484Z,100.00
2022-12-19T03:01:50.354Z,100.00
2022-12-19T03:05:14.166Z,100.00
2022-12-19T03:08:08.534Z,100.00
2022-12-19T03:10:48.686Z,100.00
2022-12-19T03:13:30.546Z,100.00
2022-12-19T03:16:04.627Z,100.00
2022-12-19T03:18:36.797Z,100.00
2022-12-19T03:21:16.153Z,100.00
2022-12-19T03:23:50.689Z,99.85
2022-12-19T03:26:27.173Z,100.00
2022-12-19T03:29:13.233Z,100.00
2022-12-19T03:31:46.352Z,100.00
2022-12-19T03:34:30.332Z,100.00
2022-12-19T03:37:05.772Z,100.00
2022-12-19T03:39:42.203Z,100.00
2022-12-19T03:42:35.150Z,99.90
2022-12-19T03:45:08.121Z,99.92
2022-12-19T03:47:57.318Z,100.00
2022-12-19T03:50:42.983Z,100.00
2022-12-19T03:53:48.616Z,100.00
2022-12-19T03:56:33.959Z,99.90
2022-12-19T03:59:22.687Z,100.00
2022-12-19T04:01:55.348Z,99.95
2022-12-19T04:04:28.971Z,100.00
2022-12-19T04:07:03.628Z,99.94
2022-12-19T04:09:37.232Z,100.00
2022-12-19T04:12:20.346Z,100.00
2022-12-19T04:14:52.691Z,100.00
2022-12-19T04:17:41.568Z,100.00
2022-12-19T04:20:18.409Z,100.00
2022-12-19T04:22:59.101Z,100.00
2022-12-19T04:25:36.132Z,100.00
2022-12-19T04:28:36.761Z,100.00
2022-12-19T04:31:15.678Z,100.00
2022-12-19T04:33:47.701Z,100.00
2022-12-19T04:36:19.715Z,100.00
2022-12-19T04:38:52.775Z,100.00
2022-12-19T04:41:24.829Z,100.00
2022-12-19T04:43:56.833Z,100.00
2022-12-19T04:46:28.825Z,100.00
2022-12-19T04:49:00.803Z,100.00
2022-12-19T04:51:32.767Z,100.00
2022-12-19T04:54:04.849Z,100.00
2022-12-19T04:56:36.806Z,100.00
2022-12-19T04:59:08.985Z,100.00
2022-12-19T05:01:41.040Z,100.00
2022-12-19T05:04:13.174Z,100.00
2022-12-19T05:06:45.148Z,100.00
2022-12-19T05:09:17.578Z,100.00
2022-12-19T05:11:49.606Z,100.00
2022-12-19T05:14:21.589Z,100.00
2022-12-19T05:16:58.898Z,100.00
2022-12-19T05:19:33.310Z,100.00
2022-12-19T05:22:05.435Z,100.00
2022-12-19T05:24:37.343Z,100.00
2022-12-19T05:27:09.357Z,100.00
2022-12-19T05:29:41.347Z,100.00
2022-12-19T05:32:13.350Z,100.00
2022-12-19T05:34:45.280Z,100.00
2022-12-19T05:37:17.230Z,100.00
2022-12-19T05:39:49.290Z,100.00
2022-12-19T05:42:21.301Z,100.00
2022-12-19T05:44:53.241Z,100.00
2022-12-19T05:47:25.298Z,100.00
2022-12-19T05:49:57.280Z,100.00
2022-12-19T05:52:29.265Z,100.00
2022-12-19T05:55:01.236Z,100.00
2022-12-19T05:57:33.347Z,100.00
2022-12-19T06:00:09.823Z,100.00
2022-12-19T06:02:42.163Z,100.00
2022-12-19T06:05:14.646Z,100.00
2022-12-19T06:07:46.688Z,100.00
2022-12-19T06:10:18.661Z,100.00
2022-12-19T06:12:50.658Z,100.00
2022-12-19T06:15:22.692Z,100.00
2022-12-19T06:17:55.231Z,100.00
2022-12-19T06:20:27.254Z,100.00
2022-12-19T06:23:00.161Z,100.00
2022-12-19T06:25:32.273Z,100.00
2022-12-19T06:28:04.512Z,100.00
2022-12-19T06:30:36.562Z,100.00
2022-12-19T06:33:08.559Z,100.00
2022-12-19T06:35:40.553Z,100.00
2022-12-19T06:38:12.557Z,100.00
2022-12-19T06:41:03.416Z,100.00
2022-12-19T06:43:35.409Z,100.00
2022-12-19T06:46:08.154Z,100.00
2022-12-19T06:48:40.267Z,100.00
2022-12-19T06:51:12.211Z,100.00
2022-12-19T06:53:44.306Z,100.00
2022-12-19T06:56:18.013Z,100.00
2022-12-19T06:58:50.717Z,100.00
2022-12-19T07:01:36.775Z,100.00
2022-12-19T07:04:12.087Z,100.00
2022-12-19T07:06:48.906Z,100.00
2022-12-19T07:09:22.283Z,100.00
2022-12-19T07:11:54.226Z,100.00
2022-12-19T07:14:26.229Z,100.00
2022-12-19T07:17:01.160Z,100.00
2022-12-19T07:19:34.305Z,100.00
2022-12-19T07:22:06.884Z,100.00
2022-12-19T07:24:38.997Z,100.00
2022-12-19T07:27:11.029Z,100.00
2022-12-19T07:29:43.031Z,100.00
2022-12-19T07:32:15.070Z,100.00
2022-12-19T07:34:47.104Z,100.00
2022-12-19T07:37:19.039Z,100.00
2022-12-19T07:39:52.949Z,100.00
2022-12-19T07:42:28.162Z,100.00
2022-12-19T07:45:05.011Z,100.00
2022-12-19T07:47:36.960Z,100.00
2022-12-19T07:50:09.338Z,100.00
2022-12-19T07:52:41.251Z,100.00
2022-12-19T07:55:13.697Z,100.00
2022-12-19T07:57:45.616Z,100.00
2022-12-19T08:00:18.489Z,100.00
2022-12-19T08:02:50.572Z,100.00
2022-12-19T08:05:25.639Z,100.00
2022-12-19T08:07:58.229Z,100.00
2022-12-19T08:10:31.135Z,100.00
2022-12-19T08:13:03.139Z,100.00
2022-12-19T08:15:35.601Z,100.00
2022-12-19T08:18:07.617Z,100.00
2022-12-19T08:20:39.727Z,100.00
2022-12-19T08:23:11.697Z,100.00
2022-12-19T08:25:43.665Z,100.00
2022-12-19T08:28:15.881Z,100.00
2022-12-19T08:30:48.037Z,100.00
2022-12-19T08:33:20.062Z,100.00
2022-12-19T08:35:52.097Z,100.00
2022-12-19T08:38:24.064Z,100.00
2022-12-19T08:40:56.095Z,100.00
2022-12-19T08:43:28.889Z,100.00
2022-12-19T08:46:01.053Z,100.00
2022-12-19T08:48:34.680Z,100.00
2022-12-19T08:51:08.410Z,100.00
2022-12-19T08:53:42.839Z,100.00
2022-12-19T08:56:20.690Z,100.00
2022-12-19T08:58:52.844Z,100.00
2022-12-19T09:01:26.059Z,100.00
2022-12-19T09:04:25.204Z,100.00
2022-12-19T09:06:53.283Z,100.00
2022-12-19T09:09:25.344Z,100.00
2022-12-19T09:11:57.357Z,100.00
2022-12-19T09:14:34.703Z,100.00
2022-12-19T09:17:07.212Z,100.00
2022-12-19T09:19:39.963Z,100.00
2022-12-19T09:22:15.525Z,100.00
2022-12-19T09:24:47.603Z,100.00
2022-12-19T09:27:19.685Z,100.00
2022-12-19T09:29:51.877Z,100.00
2022-12-19T09:32:23.841Z,100.00
2022-12-19T09:34:55.942Z,100.00
2022-12-19T09:37:28.002Z,100.00
2022-12-19T09:40:00.023Z,100.00
2022-12-19T09:42:57.291Z,100.00
2022-12-19T09:46:08.224Z,100.00
2022-12-19T09:48:40.476Z,100.00
2022-12-19T09:51:35.960Z,100.00
2022-12-19T09:54:20.515Z,100.00
2022-12-19T09:56:59.358Z,100.00
2022-12-19T09:59:41.477Z,100.00
2022-12-19T10:02:57.532Z,100.00
2022-12-19T10:07:09.381Z,100.00
2022-12-19T10:09:49.986Z,100.00
2022-12-19T10:12:39.119Z,100.00
2022-12-19T10:15:10.867Z,100.00
2022-12-19T10:18:02.894Z,100.00
2022-12-19T10:20:38.869Z,100.00
2022-12-19T10:23:42.747Z,100.00
2022-12-19T10:26:21.181Z,100.00
2022-12-19T10:28:56.829Z,100.00
2022-12-19T10:32:13.298Z,100.00
2022-12-19T10:34:47.926Z,100.00
2022-12-19T10:37:49.571Z,100.00
2022-12-19T10:40:30.640Z,100.00
2022-12-19T10:43:44.765Z,100.00
2022-12-19T10:46:38.223Z,100.00
2022-12-19T10:49:17.331Z,100.00
2022-12-19T10:52:08.006Z,100.00
2022-12-19T10:54:43.876Z,100.00
2022-12-19T10:57:21.936Z,100.00
2022-12-19T11:00:06.856Z,100.00
2022-12-19T11:02:38.975Z,100.00
2022-12-19T11:05:28.411Z,100.00
2022-12-19T11:08:07.730Z,100.00
2022-12-19T11:12:16.033Z,100.00
2022-12-19T11:19:13.300Z,100.00
2022-12-19T11:21:38.732Z,100.00
2022-12-19T11:29:19.337Z,100.00
2022-12-19T11:30:05.170Z,100.00
2022-12-19T11:30:43.752Z,100.00
2022-12-19T11:30:46.079Z,100.00
2022-12-19T11:34:24.876Z,100.00
2022-12-19T11:37:21.507Z,100.00
2022-12-19T11:40:40.422Z,100.00
2022-12-19T11:43:53.440Z,100.00
2022-12-19T11:46:49.995Z,100.00
2022-12-19T11:49:39.516Z,100.00
2022-12-19T11:53:03.607Z,100.00
2022-12-19T11:55:55.646Z,100.00
2022-12-19T11:58:31.512Z,100.00
2022-12-19T12:01:35.888Z,100.00
2022-12-19T12:04:46.654Z,100.00
2022-12-19T12:07:41.827Z,100.00
2022-12-19T12:15:00.043Z,100.00
2022-12-19T12:22:17.625Z,100.00
2022-12-19T12:29:39.809Z,100.00
2022-12-19T12:31:22.735Z,100.00
2022-12-19T12:31:23.268Z,100.00
2022-12-19T12:31:45.832Z,100.00
2022-12-19T12:31:55.329Z,100.00
2022-12-19T12:35:16.267Z,100.00
2022-12-19T12:39:24.328Z,100.00
2022-12-19T12:42:37.009Z,100.00
2022-12-19T12:45:35.699Z,100.00
2022-12-19T12:48:31.713Z,100.00
2022-12-19T12:51:04.550Z,100.00
2022-12-19T12:53:42.230Z,100.00
2022-12-19T12:56:17.598Z,100.00
2022-12-19T12:58:51.737Z,100.00
2022-12-19T13:01:29.534Z,100.00
2022-12-19T13:04:31.986Z,100.00
2022-12-19T13:07:39.062Z,100.00
2022-12-19T13:10:13.803Z,100.00
2022-12-19T13:13:22.529Z,100.00
2022-12-19T13:15:57.737Z,100.00
2022-12-19T13:18:40.087Z,100.00
2022-12-19T13:21:12.097Z,100.00
2022-12-19T13:23:48.145Z,100.00
2022-12-19T13:26:47.531Z,100.00
2022-12-19T13:29:33.778Z,100.00
2022-12-19T13:32:15.781Z,100.00
2022-12-19T13:36:53.375Z,100.00
2022-12-19T13:39:56.640Z,100.00
2022-12-19T13:41:58.937Z,100.00
2022-12-19T13:44:39.168Z,100.00
2022-12-19T13:47:18.922Z,100.00
2022-12-19T13:49:54.879Z,100.00
2022-12-19T13:52:26.920Z,100.00
2022-12-19T13:54:59.804Z,100.00
2022-12-19T13:57:32.403Z,100.00
2022-12-19T14:00:17.374Z,100.00
2022-12-19T14:02:54.971Z,100.00
2022-12-19T14:06:17.899Z,100.00
2022-12-19T14:08:30.551Z,100.00
2022-12-19T14:11:56.774Z,100.00
2022-12-19T14:14:25.723Z,100.00
2022-12-19T14:17:33.360Z,100.00
2022-12-19T14:21:10.665Z,100.00
2022-12-19T14:23:15.599Z,100.00
2022-12-19T14:28:20.371Z,100.00
2022-12-19T14:29:00.690Z,100.00
2022-12-19T14:31:35.696Z,100.00
2022-12-19T14:34:46.949Z,100.00
2022-12-19T14:39:03.009Z,100.00
2022-12-19T14:40:33.752Z,100.00
2022-12-19T14:43:57.277Z,100.00
2022-12-19T14:52:51.910Z,100.00
2022-12-19T14:54:10.124Z,100.00
2022-12-19T14:54:29.066Z,100.00
2022-12-19T14:56:16.280Z,100.00
2022-12-19T14:58:54.462Z,100.00
2022-12-19T15:01:34.130Z,100.00
2022-12-19T15:04:48.494Z,100.00
2022-12-19T15:07:29.349Z,100.00
2022-12-19T15:11:06.145Z,100.00
2022-12-19T15:14:55.229Z,100.00
2022-12-19T15:16:44.648Z,100.00
2022-12-19T15:19:16.888Z,100.00
2022-12-19T15:21:49.072Z,100.00
2022-12-19T15:24:21.033Z,100.00
2022-12-19T15:26:53.891Z,100.00
2022-12-19T15:29:26.688Z,100.00
2022-12-19T15:31:58.716Z,100.00
2022-12-19T15:34:38.035Z,100.00
2022-12-19T15:37:15.944Z,100.00
2022-12-19T15:39:48.067Z,100.00
2022-12-19T15:42:25.172Z,100.00
2022-12-19T15:44:59.944Z,100.00
2022-12-19T15:47:37.281Z,100.00
2022-12-19T15:50:17.950Z,100.00
2022-12-19T15:52:53.303Z,100.00
2022-12-19T15:55:29.236Z,100.00
2022-12-19T15:58:05.718Z,100.00
2022-12-19T16:00:37.962Z,100.00
2022-12-19T16:03:23.721Z,100.00
2022-12-19T16:05:57.404Z,100.00
2022-12-19T16:08:29.404Z,100.00
2022-12-19T16:11:02.315Z,100.00
2022-12-19T16:13:35.525Z,100.00
2022-12-19T16:16:15.374Z,100.00
2022-12-19T16:18:47.987Z,100.00
2022-12-19T16:21:33.182Z,100.00
2022-12-19T16:24:06.318Z,100.00
2022-12-19T16:26:40.533Z,100.00
2022-12-19T16:29:21.165Z,100.00
2022-12-19T16:31:54.094Z,100.00
2022-12-19T16:34:26.450Z,100.00
2022-12-19T16:36:58.554Z,100.00
2022-12-19T16:39:30.558Z,100.00
2022-12-19T16:42:05.108Z,100.00
2022-12-19T16:44:37.226Z,100.00
2022-12-19T16:47:17.867Z,100.00
2022-12-19T16:49:49.997Z,100.00
2022-12-19T16:52:22.078Z,100.00
2022-12-19T16:54:54.098Z,100.00
2022-12-19T16:57:26.191Z,100.00
2022-12-19T16:59:58.249Z,100.00
2022-12-19T17:03:01.444Z,100.00
2022-12-19T17:05:33.781Z,100.00
2022-12-19T17:08:12.916Z,100.00
2022-12-19T17:10:46.203Z,100.00
2022-12-19T17:13:18.467Z,100.00
2022-12-19T17:15:56.237Z,100.00
2022-12-19T17:18:36.250Z,100.00
2022-12-19T17:21:16.642Z,100.00
2022-12-19T17:23:52.035Z,100.00
2022-12-19T17:26:23.981Z,100.00
2022-12-19T17:28:55.937Z,100.00
2022-12-19T17:31:30.160Z,100.00
2022-12-19T17:34:02.384Z,100.00
2022-12-19T17:36:37.799Z,100.00
2022-12-19T17:39:25.519Z,100.00
2022-12-19T17:42:21.693Z,100.00
2022-12-19T17:44:55.845Z,100.00
2022-12-19T17:47:30.002Z,100.00
2022-12-19T17:50:02.768Z,100.00
2022-12-19T17:52:36.248Z,100.00
2022-12-19T17:55:26.148Z,100.00
2022-12-19T17:57:59.788Z,100.00
2022-12-19T18:00:33.916Z,100.00
2022-12-19T18:03:17.685Z,100.00
2022-12-19T18:05:52.217Z,100.00
2022-12-19T18:08:30.540Z,100.00
2022-12-19T18:11:05.380Z,100.00
2022-12-19T18:13:37.509Z,100.00
2022-12-19T18:16:14.351Z,100.00
2022-12-19T18:18:47.723Z,100.00
2022-12-19T18:21:24.473Z,100.00
2022-12-19T18:23:56.899Z,100.00
2022-12-19T18:26:29.644Z,100.00
2022-12-19T18:29:01.879Z,100.00
2022-12-19T18:31:36.624Z,100.00
2022-12-19T18:34:19.518Z,100.00
2022-12-19T18:36:54.021Z,100.00
2022-12-19T18:39:29.250Z,100.00
2022-12-19T18:42:01.651Z,100.00
2022-12-19T18:44:34.558Z,100.00
2022-12-19T18:47:21.833Z,100.00
2022-12-19T18:49:53.810Z,100.00
2022-12-19T18:52:25.993Z,100.00
2022-12-19T18:54:57.985Z,100.00
2022-12-19T18:57:30.076Z,100.00
2022-12-19T19:00:02.241Z,100.00
2022-12-19T19:02:34.479Z,100.00
2022-12-19T19:05:17.067Z,100.00
2022-12-19T19:07:49.219Z,100.00
2022-12-19T19:10:25.631Z,100.00
2022-12-19T19:13:01.686Z,100.00
2022-12-19T19:15:41.578Z,100.00
2022-12-19T19:18:13.895Z,100.00
2022-12-19T19:20:46.551Z,100.00
2022-12-19T19:23:18.641Z,100.00
2022-12-19T19:25:50.656Z,100.00
2022-12-19T19:28:22.671Z,100.00
2022-12-19T19:30:55.718Z,100.00
2022-12-19T19:33:34.506Z,100.00
2022-12-19T19:36:13.412Z,100.00
2022-12-19T19:38:50.739Z,100.00
2022-12-19T19:41:29.558Z,100.00
2022-12-19T19:44:02.033Z,100.00
2022-12-19T19:46:33.995Z,100.00
2022-12-19T19:49:05.984Z,100.00
2022-12-19T19:51:38.042Z,100.00
2022-12-19T19:54:16.082Z,100.00
2022-12-19T19:56:48.905Z,100.00
2022-12-19T19:59:21.581Z,100.00
2022-12-19T20:01:54.455Z,100.00
2022-12-19T20:04:26.859Z,100.00
2022-12-19T20:06:58.983Z,100.00
2022-12-19T20:09:31.040Z,100.00
2022-12-19T20:12:04.095Z,100.00
2022-12-19T20:14:36.328Z,100.00
2022-12-19T20:17:08.486Z,100.00
2022-12-19T20:19:40.613Z,100.00
2022-12-19T20:22:12.560Z,100.00
2022-12-19T20:24:44.655Z,100.00
2022-12-19T20:27:16.715Z,100.00
2022-12-19T20:29:48.697Z,100.00
2022-12-19T20:32:20.690Z,100.00
2022-12-19T20:34:52.739Z,100.00
2022-12-19T20:37:25.417Z,100.00
2022-12-19T20:39:57.433Z,100.00
2022-12-19T20:42:29.525Z,100.00
2022-12-19T20:45:01.529Z,100.00
2022-12-19T20:47:33.582Z,100.00
2022-12-19T20:50:07.680Z,100.00
2022-12-19T20:52:39.725Z,100.00
2022-12-19T20:55:11.810Z,100.00
2022-12-19T20:57:43.857Z,100.00
2022-12-19T21:00:18.037Z,100.00
2022-12-19T21:03:26.325Z,100.00
2022-12-19T21:05:42.520Z,100.00
2022-12-19T21:08:14.626Z,100.00
2022-12-19T21:10:46.680Z,100.00
2022-12-19T21:13:19.325Z,100.00
2022-12-19T21:16:03.051Z,100.00
2022-12-19T21:18:37.828Z,100.00
2022-12-19T21:21:16.117Z,100.00
2022-12-19T21:23:48.904Z,100.00
2022-12-19T21:26:23.565Z,100.00
2022-12-19T21:28:58.158Z,100.00
2022-12-19T21:31:31.415Z,100.00
2022-12-19T21:34:03.836Z,100.00
2022-12-19T21:36:37.076Z,100.00
2022-12-19T21:39:09.202Z,100.00
2022-12-19T21:41:41.290Z,100.00
2022-12-19T21:44:13.432Z,100.00
2022-12-19T21:46:47.721Z,100.00
2022-12-19T21:49:20.184Z,100.00
2022-12-19T21:51:52.343Z,100.00
2022-12-19T21:54:24.339Z,100.00
2022-12-19T21:56:56.424Z,100.00
2022-12-19T21:59:28.941Z,100.00
2022-12-19T22:02:01.121Z,100.00
2022-12-19T22:04:33.304Z,100.00
2022-12-19T22:07:07.424Z,100.00
2022-12-19T22:09:39.493Z,100.00
2022-12-19T22:12:13.230Z,100.00
2022-12-19T22:14:45.656Z,100.00
2022-12-19T22:17:17.688Z,100.00
2022-12-19T22:19:49.645Z,100.00
2022-12-19T22:22:21.624Z,100.00
2022-12-19T22:24:53.667Z,100.00
2022-12-19T22:27:25.748Z,100.00
2022-12-19T22:29:58.003Z,100.00
2022-12-19T22:32:30.300Z,100.00
2022-12-19T22:35:02.495Z,100.00
2022-12-19T22:37:34.714Z,100.00
2022-12-19T22:40:08.191Z,100.00
2022-12-19T22:42:40.165Z,100.00
2022-12-19T22:45:12.340Z,100.00
2022-12-19T22:47:44.703Z,100.00
2022-12-19T22:50:16.718Z,100.00
2022-12-19T22:52:48.815Z,100.00
2022-12-19T22:55:20.755Z,100.00
2022-12-19T22:57:52.709Z,100.00
2022-12-19T23:00:24.746Z,100.00
2022-12-19T23:02:56.891Z,100.00
2022-12-19T23:05:29.108Z,100.00
2022-12-19T23:08:01.128Z,100.00
2022-12-19T23:10:33.317Z,100.00
2022-12-19T23:13:05.340Z,100.00
2022-12-19T23:15:37.383Z,100.00
2022-12-19T23:18:09.447Z,100.00
2022-12-19T23:20:41.602Z,100.00
2022-12-19T23:23:13.591Z,100.00
2022-12-19T23:25:45.671Z,100.00
2022-12-19T23:28:17.640Z,100.00
2022-12-19T23:30:49.759Z,100.00
2022-12-19T23:33:21.815Z,100.00
2022-12-19T23:35:53.845Z,100.00
2022-12-19T23:38:26.457Z,100.00
2022-12-19T23:41:02.175Z,100.00
2022-12-19T23:43:36.673Z,100.00
2022-12-19T23:46:22.133Z,100.00
2022-12-19T23:48:55.317Z,100.00
2022-12-19T23:51:28.884Z,100.00
2022-12-19T23:54:00.903Z,100.00
2022-12-19T23:56:33.391Z,100.00
2022-12-19T23:59:05.753Z,100.00
